Time;durP1;ratioP1;P1;durP2;ratioP2;P2;SDS_P1;SDS_P2;PMS_P1;PMS_P2;Temp;Humidity;BMP_temperature;BMP_pressure;BME280_temperature;BME280_humidity;BME280_pressure;Samples;Min_cycle;Max_cycle;Signal;HPM_P1;HPM_P2
2023/10/27 00:01:49;;;;;;;6.03;1.98;;;11.10;72.40;;;;;;5063922;28;20036;-81
2023/10/27 00:04:15;;;;;;;3.33;1.63;;;11.10;72.50;;;;;;5065227;28;20034;-81
2023/10/27 00:06:41;;;;;;;4.65;1.60;;;11.00;72.40;;;;;;5067871;28;20041;-80
2023/10/27 00:09:08;;;;;;;4.22;1.83;;;11.00;72.40;;;;;;5061599;28;20035;-80
2023/10/27 00:11:35;;;;;;;4.93;2.08;;;11.00;72.40;;;;;;5061517;28;20099;-80
2023/10/27 00:14:04;;;;;;;5.68;1.60;;;10.90;72.20;;;;;;5070206;28;20100;-80
2023/10/27 00:16:31;;;;;;;4.70;1.83;;;10.90;72.30;;;;;;5062146;28;20135;-80
2023/10/27 00:18:57;;;;;;;3.30;2.17;;;10.90;72.30;;;;;;5065126;28;20109;-80
2023/10/27 00:21:23;;;;;;;3.75;1.60;;;10.90;72.30;;;;;;5065749;28;20040;-80
2023/10/27 00:23:49;;;;;;;3.97;1.85;;;10.90;72.40;;;;;;5060692;28;20258;-80
2023/10/27 00:26:15;;;;;;;3.58;1.95;;;10.80;72.20;;;;;;5057482;28;20519;-80
2023/10/27 00:28:46;;;;;;;4.03;1.90;;;10.80;72.20;;;;;;5054014;28;20056;-80
2023/10/27 00:31:12;;;;;;;4.43;1.77;;;10.80;72.20;;;;;;5062238;28;20517;-80
2023/10/27 00:33:38;;;;;;;3.00;1.88;;;10.80;72.20;;;;;;5060530;28;20033;-80
2023/10/27 00:36:05;;;;;;;3.40;2.05;;;10.80;72.80;;;;;;5059541;28;20028;-80
2023/10/27 00:38:32;;;;;;;4.28;1.73;;;10.80;72.30;;;;;;5041975;28;20066;-79
2023/10/27 00:40:58;;;;;;;5.70;1.88;;;10.70;72.10;;;;;;5052888;28;20558;-79
2023/10/27 00:43:24;;;;;;;2.85;1.45;;;10.70;72.10;;;;;;5060707;28;20032;-79
2023/10/27 00:45:51;;;;;;;6.20;1.83;;;10.70;72.10;;;;;;5058215;28;20135;-79
2023/10/27 00:48:21;;;;;;;7.60;2.10;;;10.70;72.10;;;;;;5058095;28;20016;-80
2023/10/27 00:50:49;;;;;;;3.28;1.60;;;10.70;72.10;;;;;;5058039;28;20187;-80
2023/10/27 00:53:19;;;;;;;3.63;1.73;;;10.60;72.00;;;;;;5063078;28;20107;-80
2023/10/27 00:55:45;;;;;;;2.95;1.15;;;10.60;72.00;;;;;;5060293;28;20032;-80
2023/10/27 00:58:13;;;;;;;5.80;1.80;;;10.60;72.00;;;;;;5057640;28;20048;-79
2023/10/27 01:00:39;;;;;;;4.82;1.73;;;10.60;72.00;;;;;;5058370;28;20039;-80
2023/10/27 01:03:06;;;;;;;3.85;1.48;;;10.60;72.10;;;;;;5062655;28;20091;-80
2023/10/27 01:05:32;;;;;;;3.28;1.80;;;10.60;72.10;;;;;;5058787;28;20544;-81
2023/10/27 01:08:00;;;;;;;3.40;1.30;;;10.50;71.90;;;;;;5058363;28;20495;-80
2023/10/27 01:10:27;;;;;;;2.25;1.55;;;10.50;71.90;;;;;;5064148;28;20045;-80
2023/10/27 01:12:55;;;;;;;5.72;1.75;;;10.50;72.00;;;;;;5045309;28;20029;-79
2023/10/27 01:15:21;;;;;;;2.90;1.30;;;10.50;72.00;;;;;;5066291;28;20040;-78
2023/10/27 01:17:48;;;;;;;3.85;1.38;;;10.50;72.00;;;;;;5066089;28;20058;-79
2023/10/27 01:20:18;;;;;;;3.30;1.38;;;10.50;72.10;;;;;;5064646;28;20067;-79
2023/10/27 01:22:49;;;;;;;3.17;1.48;;;10.50;72.10;;;;;;5070293;28;20032;-79
2023/10/27 01:25:16;;;;;;;5.10;1.83;;;10.50;72.10;;;;;;5067169;28;20038;-80
2023/10/27 01:27:44;;;;;;;2.38;1.10;;;10.50;72.10;;;;;;5066084;28;20843;-79
2023/10/27 01:30:12;;;;;;;2.28;1.17;;;10.40;71.90;;;;;;5063750;28;20027;-80
2023/10/27 01:32:40;;;;;;;2.95;1.23;;;10.50;72.10;;;;;;5059816;28;20082;-80
2023/10/27 01:35:07;;;;;;;4.13;1.10;;;10.50;72.20;;;;;;5069310;28;20033;-80
2023/10/27 01:37:35;;;;;;;5.97;1.45;;;10.40;72.00;;;;;;5062411;28;20032;-80
2023/10/27 01:40:04;;;;;;;1.98;1.10;;;10.40;72.00;;;;;;5059202;28;20057;-80
2023/10/27 01:42:34;;;;;;;2.53;1.05;;;10.40;72.10;;;;;;5058345;28;20035;-80
2023/10/27 01:45:04;;;;;;;2.47;1.30;;;10.50;72.30;;;;;;5079860;28;20048;-79
2023/10/27 01:47:31;;;;;;;4.05;1.15;;;10.50;72.20;;;;;;5059236;28;20111;-80
2023/10/27 01:49:57;;;;;;;2.63;1.05;;;10.50;72.80;;;;;;5074862;28;20446;-81
2023/10/27 01:52:23;;;;;;;4.25;1.40;;;10.50;72.20;;;;;;5064514;28;20028;-80
2023/10/27 01:54:50;;;;;;;5.72;1.65;;;10.50;72.20;;;;;;5066257;28;20052;-80
2023/10/27 01:57:17;;;;;;;1.40;1.17;;;10.40;72.10;;;;;;5061926;28;20121;-80
2023/10/27 01:59:43;;;;;;;2.47;1.00;;;10.40;72.00;;;;;;5062469;28;20039;-80
2023/10/27 02:02:13;;;;;;;3.00;1.30;;;10.40;72.00;;;;;;5063247;28;20365;-80
2023/10/27 02:04:39;;;;;;;2.20;1.50;;;10.40;72.10;;;;;;5064292;28;20029;-80
2023/10/27 02:07:06;;;;;;;3.30;1.27;;;10.40;72.10;;;;;;5045804;28;20134;-81
2023/10/27 02:09:32;;;;;;;3.50;1.08;;;10.40;72.10;;;;;;5064197;28;20041;-81
2023/10/27 02:11:57;;;;;;;4.13;1.50;;;10.40;72.10;;;;;;5042762;28;20041;-80
2023/10/27 02:14:25;;;;;;;3.92;1.33;;;10.30;72.00;;;;;;5045955;28;20419;-80
2023/10/27 02:16:52;;;;;;;5.47;1.83;;;10.30;72.00;;;;;;5062800;28;20029;-80
2023/10/27 02:19:17;;;;;;;3.45;1.30;;;10.30;72.00;;;;;;5063729;28;20107;-80
2023/10/27 02:21:45;;;;;;;3.35;1.92;;;10.30;72.00;;;;;;5062633;28;20124;-80
2023/10/27 02:24:12;;;;;;;1.50;1.13;;;10.30;72.10;;;;;;5062828;28;20037;-80
2023/10/27 02:26:38;;;;;;;6.15;1.65;;;10.20;71.90;;;;;;5060576;28;20043;-80
2023/10/27 02:29:04;;;;;;;3.28;1.65;;;10.30;72.10;;;;;;5057794;28;20478;-80
2023/10/27 02:31:30;;;;;;;4.78;1.80;;;10.30;72.10;;;;;;5061694;28;20044;-81
2023/10/27 02:33:56;;;;;;;2.33;1.40;;;10.20;72.00;;;;;;5097667;27;20030;-81
2023/10/27 02:36:23;;;;;;;4.90;1.13;;;10.30;72.20;;;;;;5060191;28;20075;-81
2023/10/27 02:38:49;;;;;;;4.05;1.50;;;10.20;72.00;;;;;;5062137;28;20369;-81
2023/10/27 02:41:14;;;;;;;4.72;1.40;;;10.20;72.00;;;;;;5054890;28;20064;-81
2023/10/27 02:43:41;;;;;;;2.63;1.27;;;10.30;72.20;;;;;;5062234;28;20062;-81
2023/10/27 02:46:12;;;;;;;3.35;1.40;;;10.20;72.00;;;;;;5062862;28;20543;-81
2023/10/27 02:48:40;;;;;;;1.83;1.15;;;10.20;72.10;;;;;;5045689;28;20113;-81
2023/10/27 02:51:06;;;;;;;2.95;0.98;;;10.20;72.20;;;;;;5062296;28;20024;-81
2023/10/27 02:53:32;;;;;;;5.18;1.45;;;10.20;72.10;;;;;;5096066;28;20104;-80
2023/10/27 02:56:06;;;;;;;7.38;1.20;;;10.20;72.10;;;;;;5061925;28;20399;-81
2023/10/27 02:58:32;;;;;;;4.05;1.30;;;10.20;72.20;;;;;;5092793;28;20068;-80
2023/10/27 03:00:58;;;;;;;2.38;1.10;;;10.20;72.20;;;;;;5063291;28;20085;-80
2023/10/27 03:03:27;;;;;;;5.57;1.45;;;10.20;72.20;;;;;;5064272;28;20032;-81
2023/10/27 03:05:54;;;;;;;3.40;0.93;;;10.20;72.20;;;;;;5044124;28;20037;-81
2023/10/27 03:08:20;;;;;;;2.15;1.30;;;10.20;72.20;;;;;;5062373;28;20161;-80
2023/10/27 03:10:46;;;;;;;3.60;1.27;;;10.10;72.00;;;;;;5058765;28;20122;-80
2023/10/27 03:13:15;;;;;;;2.95;1.25;;;10.10;72.00;;;;;;5049492;28;20017;-80
2023/10/27 03:15:41;;;;;;;2.38;1.00;;;10.20;72.20;;;;;;5061215;28;20318;-80
2023/10/27 03:18:07;;;;;;;2.70;1.15;;;10.10;72.00;;;;;;5062141;28;20261;-80
2023/10/27 03:20:33;;;;;;;5.70;2.10;;;10.10;72.50;;;;;;5063125;28;20040;-81
2023/10/27 03:23:00;;;;;;;10.70;1.67;;;10.10;72.00;;;;;;5061959;28;20031;-80
2023/10/27 03:25:26;;;;;;;1.65;0.98;;;10.10;72.10;;;;;;5059830;28;20254;-80
2023/10/27 03:27:52;;;;;;;5.28;2.17;;;10.10;72.00;;;;;;5059631;28;20586;-79
2023/10/27 03:30:18;;;;;;;1.88;0.85;;;10.10;72.10;;;;;;5053697;28;20550;-79
2023/10/27 03:32:46;;;;;;;2.60;1.05;;;10.10;72.00;;;;;;5061509;28;20081;-81
2023/10/27 03:35:12;;;;;;;6.38;1.23;;;10.10;72.10;;;;;;5061372;28;20038;-81
2023/10/27 03:37:37;;;;;;;2.22;1.20;;;10.10;72.10;;;;;;5059092;28;20029;-81
2023/10/27 03:40:04;;;;;;;2.05;1.02;;;10.10;72.10;;;;;;5059372;28;20097;-80
2023/10/27 03:42:30;;;;;;;2.40;1.08;;;10.10;72.10;;;;;;5056635;28;20028;-81
2023/10/27 03:44:56;;;;;;;3.47;0.98;;;10.10;72.10;;;;;;5060736;28;20113;-81
2023/10/27 03:47:22;;;;;;;4.68;1.17;;;10.10;72.20;;;;;;5062943;28;20056;-80
2023/10/27 03:49:48;;;;;;;3.95;1.58;;;10.10;72.10;;;;;;5060720;28;20502;-80
2023/10/27 03:52:16;;;;;;;3.70;1.70;;;10.10;72.20;;;;;;5066880;28;20024;-79
2023/10/27 03:54:45;;;;;;;3.75;1.48;;;10.10;72.20;;;;;;5062248;28;20543;-79
2023/10/27 03:57:11;;;;;;;3.65;1.33;;;10.10;72.20;;;;;;5045887;28;20020;-78
2023/10/27 03:59:37;;;;;;;3.25;1.30;;;10.10;72.30;;;;;;5055990;28;20042;-78
2023/10/27 04:02:05;;;;;;;3.65;1.38;;;10.10;72.30;;;;;;5062563;28;20718;-78
2023/10/27 04:04:31;;;;;;;6.25;1.52;;;10.00;72.10;;;;;;5067538;28;20032;-78
2023/10/27 04:06:57;;;;;;;9.38;1.88;;;10.10;72.30;;;;;;5060620;28;20589;-78
2023/10/27 04:09:23;;;;;;;4.90;1.92;;;10.00;72.20;;;;;;5056413;28;20059;-78
2023/10/27 04:11:49;;;;;;;5.00;1.73;;;10.10;72.40;;;;;;5059285;28;20028;-79
2023/10/27 04:14:15;;;;;;;7.47;1.70;;;10.00;72.30;;;;;;5062884;28;20082;-78
2023/10/27 04:16:41;;;;;;;9.43;2.08;;;10.10;72.40;;;;;;5060625;28;20027;-79
2023/10/27 04:19:07;;;;;;;7.13;1.60;;;10.10;72.50;;;;;;5061158;28;20094;-81
2023/10/27 04:21:33;;;;;;;4.93;1.33;;;10.10;72.50;;;;;;5059575;28;20486;-79
2023/10/27 04:23:59;;;;;;;3.60;1.38;;;10.00;72.30;;;;;;5062305;28;20460;-79
2023/10/27 04:26:25;;;;;;;5.20;1.63;;;10.10;72.50;;;;;;5059988;28;20511;-78
2023/10/27 04:28:52;;;;;;;5.75;1.90;;;10.10;72.50;;;;;;5050774;28;20021;-80
2023/10/27 04:31:18;;;;;;;3.42;1.60;;;10.10;72.60;;;;;;5060696;28;20115;-78
2023/10/27 04:33:47;;;;;;;5.90;2.42;;;10.10;72.60;;;;;;5063037;28;20143;-79
2023/10/27 04:36:17;;;;;;;8.38;2.15;;;10.10;72.60;;;;;;5058160;28;20107;-79
2023/10/27 04:38:43;;;;;;;5.68;1.77;;;10.10;72.60;;;;;;5059071;28;20040;-80
2023/10/27 04:41:09;;;;;;;7.68;1.65;;;10.10;72.70;;;;;;5056734;28;20241;-79
2023/10/27 04:43:35;;;;;;;6.75;1.60;;;10.10;72.70;;;;;;5059623;28;20480;-79
2023/10/27 04:46:02;;;;;;;5.65;2.13;;;10.10;72.80;;;;;;5058016;28;20036;-80
2023/10/27 04:48:27;;;;;;;5.32;1.90;;;10.10;72.80;;;;;;5064668;28;20479;-79
2023/10/27 04:51:03;;;;;;;4.45;1.90;;;10.10;72.80;;;;;;5054092;28;20086;-79
2023/10/27 04:53:30;;;;;;;6.65;2.25;;;10.10;72.80;;;;;;5067410;28;20034;-79
2023/10/27 04:55:57;;;;;;;2.85;1.17;;;10.10;72.90;;;;;;5067904;28;20147;-79
2023/10/27 04:58:23;;;;;;;6.25;1.80;;;10.10;72.90;;;;;;5075938;28;20028;-78
2023/10/27 05:00:49;;;;;;;6.22;1.50;;;10.10;72.90;;;;;;5073089;28;20465;-77
2023/10/27 05:03:16;;;;;;;4.07;1.48;;;10.20;73.10;;;;;;5050131;28;20024;-77
2023/10/27 05:05:42;;;;;;;4.20;1.67;;;10.20;73.20;;;;;;5064551;28;20033;-78
2023/10/27 05:08:08;;;;;;;4.50;1.75;;;10.20;73.20;;;;;;5064106;28;20092;-77
2023/10/27 05:10:33;;;;;;;7.25;1.90;;;10.20;73.20;;;;;;5061778;28;20120;-78
2023/10/27 05:12:59;;;;;;;4.05;1.65;;;10.30;73.40;;;;;;5065124;28;20534;-77
2023/10/27 05:15:26;;;;;;;3.95;1.48;;;10.20;73.20;;;;;;5064474;28;20098;-78
2023/10/27 05:17:52;;;;;;;5.32;1.55;;;10.30;73.40;;;;;;5069870;28;20168;-80
2023/10/27 05:20:19;;;;;;;3.60;1.98;;;10.20;73.30;;;;;;5065826;28;20188;-80
2023/10/27 05:22:45;;;;;;;8.05;1.95;;;10.30;73.50;;;;;;5066767;28;20051;-79
2023/10/27 05:25:10;;;;;;;4.55;1.45;;;10.30;73.50;;;;;;5062574;28;20551;-81
2023/10/27 05:27:37;;;;;;;5.15;2.13;;;10.30;73.50;;;;;;5061267;28;20037;-81
2023/10/27 05:30:03;;;;;;;6.00;1.63;;;10.30;73.60;;;;;;5075911;28;20036;-81
2023/10/27 05:32:29;;;;;;;4.85;1.90;;;10.30;73.60;;;;;;5072944;28;20461;-82
2023/10/27 05:34:56;;;;;;;3.55;1.50;;;10.30;73.70;;;;;;5071905;28;20028;-82
2023/10/27 05:37:22;;;;;;;5.13;1.58;;;10.30;73.70;;;;;;5059398;28;20494;-81
2023/10/27 05:39:48;;;;;;;10.30;2.00;;;10.40;73.90;;;;;;5058176;28;20075;-81
2023/10/27 05:42:14;;;;;;;5.15;1.70;;;10.40;73.90;;;;;;5063057;28;20041;-81
2023/10/27 05:44:41;;;;;;;3.78;1.35;;;10.40;74.00;;;;;;5062255;28;20032;-81
2023/10/27 05:47:07;;;;;;;6.55;2.00;;;10.40;74.00;;;;;;5063480;28;20488;-81
2023/10/27 05:49:33;;;;;;;4.63;1.80;;;10.40;74.10;;;;;;5060593;28;20036;-81
2023/10/27 05:52:02;;;;;;;5.85;2.28;;;10.40;74.20;;;;;;5064177;28;20540;-82
2023/10/27 05:54:29;;;;;;;8.52;2.13;;;10.40;74.20;;;;;;5062225;28;20535;-81
2023/10/27 05:56:55;;;;;;;6.93;1.73;;;10.50;74.40;;;;;;5058875;28;20029;-81
2023/10/27 05:59:21;;;;;;;5.80;1.65;;;10.50;74.60;;;;;;5057717;28;20039;-81
2023/10/27 06:01:48;;;;;;;6.35;1.65;;;10.50;74.70;;;;;;5061648;28;20064;-81
2023/10/27 06:04:15;;;;;;;4.82;2.22;;;10.60;74.90;;;;;;5056243;28;20032;-80
2023/10/27 06:06:41;;;;;;;3.33;1.73;;;10.60;74.90;;;;;;5057576;28;20040;-81
2023/10/27 06:09:07;;;;;;;3.92;1.65;;;10.60;75.00;;;;;;5060817;28;20035;-80
2023/10/27 06:11:33;;;;;;;6.20;1.65;;;10.70;75.20;;;;;;5055801;28;20086;-80
2023/10/27 06:13:58;;;;;;;7.00;2.47;;;10.70;75.20;;;;;;5039173;28;20587;-81
2023/10/27 06:16:24;;;;;;;6.05;1.90;;;10.70;75.30;;;;;;5054541;28;20031;-81
2023/10/27 06:18:54;;;;;;;5.72;1.85;;;10.70;75.30;;;;;;5069330;28;20673;-80
2023/10/27 06:21:20;;;;;;;7.65;1.80;;;10.70;75.30;;;;;;5060299;28;20028;-80
2023/10/27 06:23:46;;;;;;;5.80;1.75;;;10.80;75.60;;;;;;5059541;28;20060;-81
2023/10/27 06:26:13;;;;;;;7.43;1.98;;;10.80;75.60;;;;;;5050582;28;20457;-81
2023/10/27 06:28:38;;;;;;;6.32;1.83;;;10.80;75.60;;;;;;5061268;28;20229;-81
2023/10/27 06:31:05;;;;;;;6.57;1.67;;;10.80;75.70;;;;;;5057937;28;20029;-85
2023/10/27 06:33:33;;;;;;;5.10;2.05;;;10.80;75.70;;;;;;5059921;28;20436;-82
2023/10/27 06:36:00;;;;;;;9.30;3.55;;;10.80;75.70;;;;;;5060491;28;20488;-82
2023/10/27 06:38:26;;;;;;;10.18;1.83;;;10.80;76.30;;;;;;5055036;28;20028;-82
2023/10/27 06:40:52;;;;;;;4.22;1.50;;;10.80;75.90;;;;;;5050620;28;20112;-81
2023/10/27 06:43:18;;;;;;;6.82;1.85;;;10.80;75.90;;;;;;5093552;27;20024;-81
2023/10/27 06:45:44;;;;;;;5.90;1.50;;;10.90;76.10;;;;;;5057231;28;20040;-82
2023/10/27 06:48:10;;;;;;;9.68;1.85;;;10.90;76.10;;;;;;5058057;28;20486;-81
2023/10/27 06:50:36;;;;;;;6.78;1.55;;;10.90;76.20;;;;;;5041635;28;20044;-82
2023/10/27 06:53:02;;;;;;;9.48;3.33;;;10.90;76.30;;;;;;5058231;28;20032;-82
2023/10/27 06:55:28;;;;;;;7.32;1.80;;;10.90;76.30;;;;;;5040399;28;20037;-81
2023/10/27 06:57:55;;;;;;;5.50;1.77;;;11.00;76.50;;;;;;5055248;28;20624;-83
2023/10/27 07:00:21;;;;;;;5.88;1.85;;;11.00;76.50;;;;;;5060357;28;20242;-84
2023/10/27 07:02:47;;;;;;;10.48;2.05;;;11.00;76.60;;;;;;5062310;28;20028;-84
2023/10/27 07:05:17;;;;;;;8.23;1.50;;;11.00;76.60;;;;;;5060437;28;20044;-84
2023/10/27 07:07:43;;;;;;;5.60;2.00;;;11.00;76.60;;;;;;5054880;28;20025;-82
2023/10/27 07:10:10;;;;;;;8.07;2.20;;;11.00;76.70;;;;;;5057036;28;20146;-82
2023/10/27 07:12:36;;;;;;;6.65;1.70;;;11.00;76.70;;;;;;5057207;28;20044;-82
2023/10/27 07:15:03;;;;;;;5.93;1.60;;;11.00;76.70;;;;;;5063669;28;20035;-82
2023/10/27 07:17:29;;;;;;;7.75;2.00;;;11.00;76.80;;;;;;5057750;28;20032;-82
2023/10/27 07:19:55;;;;;;;4.38;1.80;;;11.00;76.90;;;;;;5055288;28;20029;-80
2023/10/27 07:22:21;;;;;;;8.32;1.90;;;11.10;77.10;;;;;;5057409;28;20044;-81
2023/10/27 07:24:47;;;;;;;5.60;1.60;;;11.00;76.90;;;;;;5055327;28;20036;-82
2023/10/27 07:27:13;;;;;;;7.75;2.80;;;11.10;77.20;;;;;;5058748;28;20036;-83
2023/10/27 07:29:40;;;;;;;10.60;1.92;;;11.10;77.20;;;;;;5060174;28;20048;-85
2023/10/27 07:32:06;;;;;;;4.43;1.60;;;11.10;77.30;;;;;;5063038;28;20108;-81
2023/10/27 07:34:32;;;;;;;6.82;2.13;;;11.10;77.30;;;;;;5062824;28;20100;-83
2023/10/27 07:36:58;;;;;;;7.47;2.20;;;11.10;77.90;;;;;;5061889;28;20031;-84
2023/10/27 07:39:25;;;;;;;6.82;2.15;;;11.20;77.60;;;;;;5058010;28;20106;-83
2023/10/27 07:41:52;;;;;;;4.57;1.58;;;11.20;77.70;;;;;;5058529;28;20024;-83
2023/10/27 07:44:18;;;;;;;6.07;1.80;;;11.20;77.70;;;;;;5062676;28;20068;-83
2023/10/27 07:46:44;;;;;;;6.13;1.77;;;11.30;77.90;;;;;;5066160;28;20041;-83
2023/10/27 07:49:10;;;;;;;6.88;2.33;;;11.30;77.80;;;;;;5061823;28;20654;-84
2023/10/27 07:51:36;;;;;;;4.88;1.55;;;11.30;77.90;;;;;;5062133;28;20752;-83
2023/10/27 07:54:07;;;;;;;3.55;1.60;;;11.40;78.00;;;;;;5060920;28;20474;-83
2023/10/27 07:56:32;;;;;;;5.47;1.77;;;11.40;78.00;;;;;;5061945;28;20036;-84
2023/10/27 07:58:59;;;;;;;9.45;1.52;;;11.40;78.10;;;;;;5059015;28;20028;-84
2023/10/27 08:01:26;;;;;;;4.32;2.33;;;11.40;78.00;;;;;;5089395;28;20024;-83
2023/10/27 08:03:52;;;;;;;5.20;2.10;;;11.50;78.10;;;;;;5062134;28;20054;-84
2023/10/27 08:06:18;;;;;;;6.80;1.77;;;11.50;78.10;;;;;;5062255;28;20098;-83
2023/10/27 08:08:44;;;;;;;8.05;1.55;;;11.60;78.20;;;;;;5085630;27;20021;-83
2023/10/27 08:11:18;;;;;;;3.17;1.42;;;11.60;78.20;;;;;;5058496;28;20039;-84
2023/10/27 08:13:44;;;;;;;5.72;1.10;;;11.70;78.30;;;;;;5057300;28;20044;-84
2023/10/27 08:16:12;;;;;;;5.10;1.13;;;11.80;78.30;;;;;;5062402;28;20105;-86
2023/10/27 08:18:39;;;;;;;3.83;1.40;;;11.80;78.30;;;;;;5062489;28;20043;-84
2023/10/27 08:21:05;;;;;;;2.80;1.10;;;11.90;78.40;;;;;;5072920;28;20034;-83
2023/10/27 08:23:31;;;;;;;3.10;1.35;;;11.90;78.30;;;;;;5059096;28;20056;-84
2023/10/27 08:25:58;;;;;;;3.65;1.20;;;11.90;78.20;;;;;;5059880;28;20046;-84
2023/10/27 08:28:24;;;;;;;4.28;1.38;;;12.00;78.30;;;;;;5057146;28;20119;-83
2023/10/27 08:30:50;;;;;;;4.25;1.17;;;12.00;78.30;;;;;;5058489;28;20070;-84
2023/10/27 08:33:16;;;;;;;5.75;1.38;;;12.10;78.40;;;;;;5057030;28;20050;-84
2023/10/27 08:35:43;;;;;;;6.15;1.33;;;12.10;78.30;;;;;;5062269;28;20028;-85
2023/10/27 08:38:12;;;;;;;8.82;1.33;;;12.10;78.30;;;;;;5059617;28;20028;-84
2023/10/27 08:40:38;;;;;;;3.42;1.05;;;12.10;78.20;;;;;;5053149;28;20048;-83
2023/10/27 08:43:04;;;;;;;6.03;1.50;;;12.10;78.20;;;;;;5059180;28;20592;-81
2023/10/27 08:45:31;;;;;;;4.63;1.02;;;12.20;78.30;;;;;;5041893;28;20032;-83
2023/10/27 08:48:00;;;;;;;4.32;1.20;;;12.20;78.30;;;;;;5056509;28;20032;-79
2023/10/27 08:50:27;;;;;;;5.25;1.20;;;12.20;78.20;;;;;;5088142;28;20025;-81
2023/10/27 08:52:53;;;;;;;6.82;1.23;;;12.20;78.20;;;;;;5052183;28;20063;-80
2023/10/27 08:55:21;;;;;;;4.03;1.27;;;12.20;78.10;;;;;;5055035;28;20472;-82
2023/10/27 08:57:48;;;;;;;3.40;1.05;;;12.20;78.10;;;;;;5057399;28;20056;-81
2023/10/27 09:00:14;;;;;;;4.43;1.27;;;12.20;78.10;;;;;;5056007;28;20143;-81
2023/10/27 09:02:41;;;;;;;6.55;1.60;;;12.20;78.00;;;;;;5057880;28;20032;-82
2023/10/27 09:05:08;;;;;;;4.38;1.05;;;12.20;78.10;;;;;;5059995;28;20035;-81
2023/10/27 09:07:36;;;;;;;2.72;1.70;;;12.20;78.00;;;;;;5054246;28;20059;-81
2023/10/27 09:10:04;;;;;;;4.20;1.58;;;12.20;78.00;;;;;;5058481;28;20052;-81
2023/10/27 09:12:31;;;;;;;5.45;1.40;;;12.20;78.00;;;;;;5056205;28;20083;-81
2023/10/27 09:14:59;;;;;;;7.13;1.55;;;12.20;77.90;;;;;;5055617;28;20526;-80
2023/10/27 09:17:25;;;;;;;2.92;0.90;;;12.20;77.90;;;;;;5056688;28;20491;-81
2023/10/27 09:20:09;;;;;;;6.68;1.50;;;12.20;77.80;;;;;;5061152;28;20217;-80
2023/10/27 09:22:36;;;;;;;2.58;1.00;;;12.20;77.80;;;;;;5037118;28;20508;-80
2023/10/27 09:25:13;;;;;;;3.97;1.27;;;12.20;77.80;;;;;;5060624;28;20044;-81
2023/10/27 09:27:44;;;;;;;6.18;1.52;;;12.30;77.90;;;;;;5055727;28;20033;-80
2023/10/27 09:30:24;;;;;;;3.25;1.17;;;12.30;77.90;;;;;;5039129;28;20125;-81
2023/10/27 09:32:50;;;;;;;6.13;1.17;;;12.30;77.80;;;;;;5060260;28;20613;-83
2023/10/27 09:35:18;;;;;;;3.22;1.45;;;12.30;77.80;;;;;;5062812;28;20271;-81
2023/10/27 09:37:46;;;;;;;3.33;0.90;;;12.30;77.70;;;;;;5040703;28;20484;-81
2023/10/27 09:40:13;;;;;;;4.30;1.15;;;12.30;77.70;;;;;;5059639;28;20060;-81
2023/10/27 09:42:40;;;;;;;4.30;1.70;;;12.40;77.80;;;;;;5063224;28;20028;-80
2023/10/27 09:45:09;;;;;;;4.82;1.13;;;12.40;77.70;;;;;;5065171;28;20034;-80
2023/10/27 09:47:41;;;;;;;3.95;1.58;;;12.40;77.60;;;;;;5065747;28;20268;-81
2023/10/27 09:50:13;;;;;;;4.03;1.10;;;12.50;77.70;;;;;;5058730;28;20404;-81
2023/10/27 09:52:41;;;;;;;5.95;1.30;;;12.60;77.80;;;;;;5062781;28;20036;-83
2023/10/27 09:55:08;;;;;;;3.33;1.27;;;12.60;77.60;;;;;;5063410;28;20032;-82
2023/10/27 09:57:34;;;;;;;2.22;0.88;;;12.60;77.50;;;;;;5061066;28;20414;-83
2023/10/27 10:00:01;;;;;;;3.65;0.85;;;12.70;77.70;;;;;;5068586;28;20153;-83
2023/10/27 10:02:31;;;;;;;4.65;1.30;;;12.70;77.60;;;;;;5062295;28;20063;-82
2023/10/27 10:05:00;;;;;;;5.22;1.10;;;12.70;77.60;;;;;;5063516;28;20037;-83
2023/10/27 10:07:55;;;;;;;3.25;1.40;;;12.70;77.60;;;;;;5058638;28;20155;-82
2023/10/27 10:10:32;;;;;;;4.15;1.17;;;12.70;77.50;;;;;;5074031;28;20040;-82
2023/10/27 10:13:05;;;;;;;3.88;1.05;;;12.80;77.60;;;;;;5054171;28;20480;-82
2023/10/27 10:15:35;;;;;;;;;;;12.80;77.50;;;;;;5057551;28;20131;-83
2023/10/27 10:18:04;;;;;;;3.28;1.00;;;12.80;77.40;;;;;;5060251;28;19916;-82
2023/10/27 10:20:47;;;;;;;4.85;1.63;;;12.80;77.30;;;;;;5056706;28;20557;-82
2023/10/27 10:23:17;;;;;;;4.68;1.05;;;12.90;77.40;;;;;;5060993;28;20083;-83
2023/10/27 10:25:54;;;;;;;2.65;1.13;;;12.90;77.40;;;;;;5073075;28;20032;-83
2023/10/27 10:28:20;;;;;;;5.22;1.63;;;12.90;77.40;;;;;;5056092;28;20028;-82
2023/10/27 10:30:47;;;;;;;4.55;1.20;;;12.90;77.30;;;;;;5057136;28;20043;-83
2023/10/27 10:33:19;;;;;;;4.45;0.95;;;12.90;77.40;;;;;;5064319;28;20840;-82
2023/10/27 10:35:46;;;;;;;4.07;0.95;;;13.00;77.30;;;;;;5053827;28;20072;-82
2023/10/27 10:38:21;;;;;;;3.65;0.75;;;13.00;77.30;;;;;;5058755;28;20132;-82
2023/10/27 10:40:51;;;;;;;5.78;0.90;;;13.10;77.30;;;;;;5034053;28;20036;-83
2023/10/27 10:43:29;;;;;;;7.03;1.33;;;13.10;77.20;;;;;;5058382;28;20224;-82
2023/10/27 10:45:57;;;;;;;3.28;0.98;;;13.10;77.00;;;;;;5057930;28;20526;-83
2023/10/27 10:48:25;;;;;;;4.00;0.88;;;13.20;77.10;;;;;;5054666;28;20036;-82
2023/10/27 10:50:52;;;;;;;4.75;1.30;;;13.20;77.00;;;;;;5059532;28;20188;-82
2023/10/27 10:53:21;;;;;;;4.63;1.27;;;13.30;77.10;;;;;;5056706;28;20024;-81
2023/10/27 10:55:48;;;;;;;2.53;1.00;;;13.30;77.00;;;;;;5058565;28;20056;-81
2023/10/27 10:58:35;;;;;;;4.05;1.15;;;13.40;77.00;;;;;;5055905;28;20078;-81
2023/10/27 11:01:03;;;;;;;2.78;0.95;;;13.40;76.90;;;;;;5056744;28;20085;-81
2023/10/27 11:03:33;;;;;;;4.72;1.10;;;13.50;76.90;;;;;;5090582;27;20047;-81
2023/10/27 11:06:02;;;;;;;3.30;1.15;;;13.50;76.80;;;;;;5055711;28;20388;-81
2023/10/27 11:08:31;;;;;;;5.95;1.10;;;13.60;76.80;;;;;;5058342;28;20044;-81
2023/10/27 11:11:03;;;;;;;3.55;0.90;;;13.60;76.80;;;;;;5061380;28;20289;-82
2023/10/27 11:13:31;;;;;;;2.60;0.95;;;13.70;76.80;;;;;;5061406;28;20177;-82
2023/10/27 11:15:59;;;;;;;5.32;1.23;;;13.70;76.70;;;;;;5057068;28;20044;-81
2023/10/27 11:18:32;;;;;;;3.85;0.77;;;13.80;76.70;;;;;;5060817;28;20029;-82
2023/10/27 11:20:59;;;;;;;7.30;1.92;;;13.80;76.60;;;;;;5066217;28;20040;-81
2023/10/27 11:23:28;;;;;;;4.72;0.90;;;13.90;77.10;;;;;;5060904;28;20499;-82
2023/10/27 11:26:02;;;;;;;2.88;0.70;;;14.00;76.60;;;;;;5057525;28;20479;-82
2023/10/27 11:28:29;;;;;;;4.32;0.93;;;14.00;76.50;;;;;;5047939;28;20136;-81
2023/10/27 11:31:15;;;;;;;4.40;0.90;;;14.10;76.40;;;;;;5056327;28;20068;-82
2023/10/27 11:33:58;;;;;;;4.07;1.95;;;14.10;76.20;;;;;;5059788;28;20046;-82
2023/10/27 11:36:32;;;;;;;2.40;1.00;;;14.20;76.20;;;;;;5059159;28;20024;-82
2023/10/27 11:39:18;;;;;;;5.88;1.23;;;14.10;76.00;;;;;;5066335;28;20047;-82
2023/10/27 11:41:58;;;;;;;4.13;1.05;;;14.20;76.00;;;;;;5034001;28;20487;-82
2023/10/27 11:44:25;;;;;;;4.85;1.05;;;14.20;76.00;;;;;;5088260;28;20094;-82
2023/10/27 11:46:56;;;;;;;4.55;1.05;;;14.20;76.00;;;;;;5058879;28;20047;-82
2023/10/27 11:49:25;;;;;;;2.53;1.05;;;14.20;75.90;;;;;;5047151;28;20458;-82
2023/10/27 11:51:57;;;;;;;4.25;1.20;;;14.30;76.10;;;;;;5055643;28;20656;-82
2023/10/27 11:54:25;;;;;;;4.07;1.17;;;14.30;76.00;;;;;;5059748;28;20032;-82
2023/10/27 11:56:52;;;;;;;3.58;1.42;;;14.30;76.00;;;;;;5053560;28;20028;-81
2023/10/27 11:59:24;;;;;;;4.20;1.00;;;14.40;76.10;;;;;;5034995;28;20033;-81
2023/10/27 12:01:52;;;;;;;7.27;2.03;;;14.40;75.90;;;;;;5041348;28;20291;-82
2023/10/27 12:04:19;;;;;;;3.85;0.90;;;14.40;75.80;;;;;;5057509;28;20281;-82
2023/10/27 12:06:45;;;;;;;3.67;1.20;;;14.50;75.90;;;;;;5053547;28;20555;-81
2023/10/27 12:09:12;;;;;;;3.67;1.30;;;14.50;75.70;;;;;;5060413;28;20031;-81
2023/10/27 12:11:41;;;;;;;7.93;1.60;;;14.60;75.80;;;;;;5039729;28;20464;-82
2023/10/27 12:14:10;;;;;;;5.05;1.05;;;14.70;75.80;;;;;;5059529;28;20270;-83
2023/10/27 12:16:36;;;;;;;3.60;1.20;;;14.80;75.70;;;;;;5058659;28;20044;-81
2023/10/27 12:19:02;;;;;;;6.05;1.27;;;15.00;75.90;;;;;;5062914;28;20024;-81
2023/10/27 12:21:28;;;;;;;5.47;1.05;;;15.10;75.70;;;;;;5059947;28;20406;-82
2023/10/27 12:23:55;;;;;;;2.28;1.10;;;15.30;75.60;;;;;;5059273;28;20435;-82
2023/10/27 12:26:21;;;;;;;4.30;1.05;;;15.40;75.40;;;;;;5055354;28;20510;-84
2023/10/27 12:28:48;;;;;;;6.53;1.70;;;15.50;75.20;;;;;;5049859;28;20033;-83
2023/10/27 12:31:14;;;;;;;3.15;0.88;;;15.70;75.20;;;;;;5050948;28;20028;-84
2023/10/27 12:33:43;;;;;;;4.68;1.45;;;15.80;75.10;;;;;;5060745;28;20078;-83
2023/10/27 12:36:11;;;;;;;5.25;1.00;;;16.00;75.00;;;;;;5055109;28;20028;-82
2023/10/27 12:38:41;;;;;;;3.22;1.00;;;16.10;74.70;;;;;;5058131;28;20055;-82
2023/10/27 12:41:09;;;;;;;3.88;0.98;;;16.20;74.50;;;;;;5054162;28;20040;-83
2023/10/27 12:43:36;;;;;;;2.35;0.85;;;16.20;74.10;;;;;;5056766;28;20043;-82
2023/10/27 12:46:12;;;;;;;6.05;1.13;;;16.30;74.10;;;;;;5056185;28;20045;-82
2023/10/27 12:48:38;;;;;;;2.20;0.90;;;16.30;73.80;;;;;;5052828;28;20044;-83
2023/10/27 12:51:07;;;;;;;2.90;1.10;;;16.30;73.60;;;;;;5055259;28;20033;-84